createdAt,value
2018-05-24T00:00:41.836Z,13.20
2018-05-24T00:03:09.329Z,13.20
2018-05-24T00:05:36.820Z,13.20
2018-05-24T00:08:04.351Z,13.30
2018-05-24T00:10:31.841Z,13.30
2018-05-24T00:13:00.087Z,13.40
2018-05-24T00:15:27.614Z,13.40
2018-05-24T00:20:53.019Z,13.30
2018-05-24T00:23:21.269Z,13.30
2018-05-24T00:25:48.750Z,13.30
2018-05-24T00:28:16.319Z,13.30
2018-05-24T00:30:44.574Z,13.30
2018-05-24T00:33:12.068Z,13.30
2018-05-24T00:35:39.602Z,13.30
2018-05-24T00:38:07.850Z,13.30
2018-05-24T00:40:35.334Z,13.30
2018-05-24T00:43:02.849Z,13.30
2018-05-24T00:45:30.334Z,13.20
2018-05-24T00:47:57.818Z,13.20
2018-05-24T00:50:26.143Z,13.20
2018-05-24T00:52:53.626Z,13.20
2018-05-24T00:55:32.821Z,13.20
2018-05-24T00:58:00.319Z,13.10
2018-05-24T01:00:27.806Z,13.10
2018-05-24T01:02:55.338Z,13.00
2018-05-24T01:05:22.838Z,13.00
2018-05-24T01:07:50.327Z,12.90
2018-05-24T01:10:17.851Z,12.80
2018-05-24T01:12:46.111Z,12.60
2018-05-24T01:15:13.603Z,12.60
2018-05-24T01:17:41.170Z,12.60
2018-05-24T01:20:09.427Z,12.50
2018-05-24T01:22:36.910Z,12.40
2018-05-24T01:25:04.474Z,12.50
2018-05-24T01:27:31.958Z,12.40
2018-05-24T01:29:59.446Z,12.40
2018-05-24T01:32:26.970Z,12.40
2018-05-24T01:34:54.458Z,12.40
2018-05-24T01:37:33.856Z,12.40
2018-05-24T01:40:01.343Z,12.50
2018-05-24T01:42:28.826Z,12.50
2018-05-24T01:44:56.339Z,12.60
2018-05-24T01:47:23.830Z,12.60
2018-05-24T01:49:51.315Z,12.70
2018-05-24T01:52:18.825Z,12.70
2018-05-24T01:54:46.308Z,12.70
2018-05-24T01:57:13.786Z,12.70
2018-05-24T01:59:41.342Z,12.70
2018-05-24T02:02:08.834Z,12.70
2018-05-24T02:04:36.330Z,12.70
2018-05-24T02:07:03.858Z,12.70
2018-05-24T02:09:32.114Z,12.70
2018-05-24T02:11:59.602Z,12.70
2018-05-24T02:14:27.139Z,12.70
2018-05-24T02:16:54.630Z,12.70
2018-05-24T02:19:22.889Z,12.60
2018-05-24T02:21:50.452Z,12.60
2018-05-24T02:24:17.938Z,12.60
2018-05-24T02:26:45.432Z,12.60
2018-05-24T02:29:12.957Z,12.60
2018-05-24T02:31:40.636Z,12.60
2018-05-24T02:34:08.147Z,12.60
2018-05-24T02:36:35.674Z,12.60
2018-05-24T02:39:03.164Z,12.60
2018-05-24T02:41:30.654Z,12.60
2018-05-24T02:43:58.210Z,12.60
2018-05-24T02:46:26.456Z,12.70
2018-05-24T02:48:53.954Z,12.70
2018-05-24T02:51:21.488Z,12.80
2018-05-24T02:53:48.976Z,12.80
2018-05-24T02:56:17.250Z,12.80
2018-05-24T02:58:44.778Z,12.80
2018-05-24T03:01:12.262Z,12.80
2018-05-24T03:03:40.524Z,12.80
2018-05-24T03:06:08.099Z,12.80
2018-05-24T03:08:36.354Z,12.80
2018-05-24T03:11:03.846Z,12.80
2018-05-24T03:13:31.382Z,12.80
2018-05-24T03:15:58.874Z,12.80
2018-05-24T03:18:27.122Z,12.80
2018-05-24T03:20:54.639Z,12.80
2018-05-24T03:23:22.123Z,12.80
2018-05-24T03:25:49.667Z,12.80
2018-05-24T03:28:17.943Z,12.80
2018-05-24T03:30:45.430Z,12.80
2018-05-24T03:33:12.910Z,12.90
2018-05-24T03:35:40.447Z,12.90
2018-05-24T03:38:07.939Z,12.90
2018-05-24T03:40:35.431Z,12.90
2018-05-24T03:43:02.971Z,13.00
2018-05-24T03:45:30.463Z,13.00
2018-05-24T03:47:57.950Z,13.10
2018-05-24T03:50:25.506Z,13.10
2018-05-24T03:52:53.014Z,13.10
2018-05-24T03:55:20.503Z,13.10
2018-05-24T03:57:48.123Z,13.20
2018-05-24T04:00:27.122Z,13.20
2018-05-24T04:03:06.467Z,13.20
2018-05-24T04:05:33.956Z,13.30
2018-05-24T04:08:01.450Z,13.30
2018-05-24T04:10:29.014Z,13.40
2018-05-24T04:12:56.504Z,13.40
2018-05-24T04:15:24.014Z,13.40
2018-05-24T04:17:52.299Z,13.50
2018-05-24T04:20:19.786Z,13.50
2018-05-24T04:22:47.271Z,13.60
2018-05-24T04:25:14.799Z,13.60
2018-05-24T04:27:42.348Z,13.70
2018-05-24T04:30:09.875Z,13.70
2018-05-24T04:32:37.446Z,13.80
2018-05-24T04:35:04.954Z,13.80
2018-05-24T04:37:32.434Z,13.90
2018-05-24T04:39:59.979Z,14.00
2018-05-24T04:42:27.482Z,14.00
2018-05-24T04:44:54.963Z,14.10
2018-05-24T04:47:22.489Z,14.10
2018-05-24T04:49:49.992Z,14.20
2018-05-24T04:52:17.817Z,14.20
2018-05-24T04:54:45.319Z,14.30
2018-05-24T04:57:12.814Z,14.40
2018-05-24T04:59:40.306Z,14.50
2018-05-24T05:02:07.890Z,14.60
2018-05-24T05:04:35.378Z,14.60
2018-05-24T05:07:02.864Z,14.70
2018-05-24T05:09:30.426Z,14.80
2018-05-24T05:11:57.915Z,14.90
2018-05-24T05:14:25.410Z,15.00
2018-05-24T05:16:52.930Z,15.10
2018-05-24T05:19:21.190Z,15.30
2018-05-24T05:21:48.714Z,15.20
2018-05-24T05:24:16.271Z,15.40
2018-05-24T05:26:43.763Z,15.50
2018-05-24T05:29:11.259Z,15.60
2018-05-24T05:31:38.796Z,15.70
2018-05-24T05:34:06.291Z,15.80
2018-05-24T05:36:33.342Z,15.90
2018-05-24T05:39:00.874Z,16.00
2018-05-24T05:41:29.202Z,16.00
2018-05-24T05:43:56.690Z,16.10
2018-05-24T05:46:24.238Z,16.20
2018-05-24T05:48:51.722Z,16.40
2018-05-24T05:51:19.215Z,16.40
2018-05-24T05:53:47.496Z,16.70
2018-05-24T05:56:14.994Z,16.60
2018-05-24T05:58:42.482Z,16.70
2018-05-24T06:01:10.023Z,16.80
2018-05-24T06:03:37.515Z,16.90
2018-05-24T06:06:05.018Z,17.00
2018-05-24T06:08:32.534Z,17.10
2018-05-24T06:11:00.024Z,17.20
2018-05-24T06:13:27.514Z,17.30
2018-05-24T06:15:55.031Z,17.30
2018-05-24T06:18:23.282Z,17.60
2018-05-24T06:20:50.324Z,17.60
2018-05-24T06:23:17.911Z,17.70
2018-05-24T06:25:45.412Z,17.80
2018-05-24T06:28:12.923Z,18.00
2018-05-24T06:30:40.457Z,18.20
2018-05-24T06:33:07.525Z,18.30
2018-05-24T06:35:34.603Z,18.50
2018-05-24T06:38:01.716Z,18.60
2018-05-24T06:40:29.218Z,18.80
2018-05-24T06:42:56.274Z,18.90
2018-05-24T06:45:23.396Z,19.00
2018-05-24T06:47:50.731Z,19.10
2018-05-24T06:50:17.791Z,19.20
2018-05-24T06:52:44.882Z,19.40
2018-05-24T06:55:11.927Z,19.40
2018-05-24T06:57:38.981Z,19.50
2018-05-24T07:00:06.075Z,19.60
2018-05-24T07:02:33.149Z,19.60
2018-05-24T07:05:00.233Z,19.70
2018-05-24T07:07:28.114Z,19.80
2018-05-24T07:09:55.156Z,19.70
2018-05-24T07:12:22.206Z,19.70
2018-05-24T07:14:49.710Z,19.80
2018-05-24T07:17:16.754Z,19.80
2018-05-24T07:19:43.809Z,19.80
2018-05-24T07:22:10.907Z,19.90
2018-05-24T07:24:39.192Z,20.10
2018-05-24T07:27:06.674Z,20.10
2018-05-24T07:29:33.810Z,20.20
2018-05-24T07:32:00.874Z,20.20
2018-05-24T07:34:27.946Z,20.30
2018-05-24T07:36:55.061Z,20.40
2018-05-24T07:39:22.105Z,20.50
2018-05-24T07:41:49.150Z,20.60
2018-05-24T07:44:16.242Z,20.60
2018-05-24T07:46:43.291Z,20.70
2018-05-24T07:49:10.336Z,20.80
2018-05-24T07:51:37.885Z,21.00
2018-05-24T07:54:04.997Z,21.10
2018-05-24T07:56:32.488Z,21.30
2018-05-24T07:58:59.606Z,21.40
2018-05-24T08:01:26.650Z,21.50
2018-05-24T08:03:53.703Z,21.60
2018-05-24T08:06:20.803Z,21.70
2018-05-24T08:08:47.849Z,21.80
2018-05-24T08:11:14.915Z,21.80
2018-05-24T08:13:42.004Z,21.90
2018-05-24T08:16:09.050Z,22.10
2018-05-24T08:18:36.094Z,22.20
2018-05-24T08:21:03.626Z,22.30
2018-05-24T08:23:30.780Z,22.30
2018-05-24T08:25:58.561Z,22.40
2018-05-24T08:28:25.698Z,22.40
2018-05-24T08:30:52.757Z,22.40
2018-05-24T08:33:19.805Z,22.50
2018-05-24T08:35:46.873Z,22.60
2018-05-24T08:38:13.916Z,22.70
2018-05-24T08:40:41.067Z,22.80
2018-05-24T08:43:08.139Z,22.90
2018-05-24T08:45:35.967Z,23.10
2018-05-24T08:48:03.019Z,23.00
2018-05-24T08:50:31.439Z,23.10
2018-05-24T08:52:58.497Z,23.10
2018-05-24T08:55:25.986Z,23.20
2018-05-24T08:57:53.510Z,23.30
2018-05-24T09:00:21.078Z,23.40
2018-05-24T09:02:48.806Z,23.50
2018-05-24T09:05:16.381Z,23.60
2018-05-24T09:07:43.873Z,23.60
2018-05-24T09:10:12.127Z,23.80
2018-05-24T09:12:39.698Z,23.70
2018-05-24T09:15:07.185Z,23.90
2018-05-24T09:17:34.686Z,24.00
2018-05-24T09:20:02.456Z,24.00
2018-05-24T09:22:31.484Z,24.10
2018-05-24T09:24:59.751Z,24.10
2018-05-24T09:27:27.291Z,24.10
2018-05-24T09:29:54.777Z,24.20
2018-05-24T09:32:22.258Z,24.30
2018-05-24T09:34:50.622Z,24.50
2018-05-24T09:37:18.106Z,24.50
2018-05-24T09:39:45.591Z,24.60
2018-05-24T09:42:13.167Z,24.60
2018-05-24T09:44:41.409Z,24.70
2018-05-24T09:47:08.899Z,24.70
2018-05-24T09:49:36.427Z,24.80
2018-05-24T09:52:03.915Z,24.80
2018-05-24T09:54:31.402Z,25.00
2018-05-24T09:56:58.942Z,25.10
2018-05-24T09:59:26.436Z,25.20
2018-05-24T10:01:53.931Z,25.20
2018-05-24T10:04:21.858Z,25.20
2018-05-24T10:06:49.353Z,25.20
2018-05-24T10:09:16.838Z,25.20
2018-05-24T10:11:44.373Z,25.10
2018-05-24T10:14:12.622Z,25.10
2018-05-24T10:16:40.106Z,25.10
2018-05-24T10:19:08.404Z,25.30
2018-05-24T10:21:35.896Z,25.30
2018-05-24T10:24:03.411Z,25.50
2018-05-24T10:26:31.530Z,25.60
2018-05-24T10:28:59.017Z,25.70
2018-05-24T10:31:26.513Z,25.70
2018-05-24T10:33:54.028Z,25.70
2018-05-24T10:36:21.523Z,25.70
2018-05-24T10:38:49.006Z,25.70
2018-05-24T10:41:16.559Z,25.70
2018-05-24T10:43:44.047Z,25.80
2018-05-24T10:46:11.539Z,25.70
2018-05-24T10:48:39.101Z,25.80
2018-05-24T10:51:06.613Z,25.80
2018-05-24T10:53:34.095Z,25.80
2018-05-24T10:56:02.436Z,25.70
2018-05-24T10:58:30.789Z,25.70
2018-05-24T11:00:58.235Z,25.70
2018-05-24T11:03:25.882Z,25.70
2018-05-24T11:05:53.284Z,25.70
2018-05-24T11:08:21.532Z,25.70
2018-05-24T11:10:49.047Z,25.60
2018-05-24T11:13:16.533Z,25.70
2018-05-24T11:15:44.791Z,25.70
2018-05-24T11:24:55.363Z,25.70
2018-05-24T11:27:22.890Z,25.80
2018-05-24T11:29:50.382Z,25.80
2018-05-24T11:32:17.931Z,25.90
2018-05-24T11:34:45.421Z,26.00
2018-05-24T11:37:13.728Z,26.10
2018-05-24T11:39:41.273Z,26.00
2018-05-24T11:42:08.770Z,26.10
2018-05-24T11:44:36.258Z,26.10
2018-05-24T11:47:03.786Z,26.10
2018-05-24T11:49:31.274Z,26.20
2018-05-24T11:51:58.821Z,26.20
2018-05-24T11:54:26.355Z,26.20
2018-05-24T11:56:53.848Z,26.20
2018-05-24T11:59:21.342Z,26.10
2018-05-24T12:01:48.994Z,26.10
2018-05-24T12:04:16.423Z,26.10
2018-05-24T12:06:43.919Z,26.10
2018-05-24T12:09:12.199Z,26.30
2018-05-24T12:11:39.691Z,26.30
2018-05-24T12:14:07.171Z,26.40
2018-05-24T12:16:34.707Z,26.50
2018-05-24T12:19:02.199Z,26.50
2018-05-24T12:21:29.803Z,26.50
2018-05-24T12:23:58.131Z,26.30
2018-05-24T12:26:25.611Z,26.30
2018-05-24T12:28:53.096Z,26.20
2018-05-24T12:31:21.395Z,26.40
2018-05-24T12:33:48.882Z,26.30
2018-05-24T12:36:16.367Z,26.50
2018-05-24T12:38:43.895Z,26.60
2018-05-24T12:41:11.382Z,26.80
2018-05-24T12:43:38.898Z,26.80
2018-05-24T12:46:06.414Z,26.90
2018-05-24T12:48:33.898Z,27.00
2018-05-24T12:51:01.391Z,27.10
2018-05-24T12:53:28.943Z,27.20
2018-05-24T12:55:56.424Z,27.30
2018-05-24T12:58:23.911Z,27.30
2018-05-24T13:00:51.447Z,27.30
2018-05-24T13:03:18.931Z,27.30
2018-05-24T13:05:46.419Z,27.40
2018-05-24T13:08:14.029Z,27.30
2018-05-24T13:10:41.520Z,27.30
2018-05-24T13:13:09.011Z,27.30
2018-05-24T13:15:37.298Z,27.50
2018-05-24T13:18:04.786Z,27.50
2018-05-24T13:20:32.274Z,27.50
2018-05-24T13:22:59.815Z,27.50
2018-05-24T13:25:27.309Z,27.60
2018-05-24T13:27:54.799Z,27.60
2018-05-24T13:30:22.380Z,27.50
2018-05-24T13:32:49.868Z,27.50
2018-05-24T13:35:17.356Z,27.50
2018-05-24T13:37:44.890Z,27.60
2018-05-24T13:40:12.378Z,27.60
2018-05-24T13:42:39.867Z,27.50
2018-05-24T13:45:07.401Z,27.50
2018-05-24T13:47:34.891Z,27.70
2018-05-24T13:50:02.375Z,27.80
2018-05-24T13:52:29.885Z,27.90
2018-05-24T13:54:58.139Z,27.80
2018-05-24T13:57:37.506Z,27.80
2018-05-24T14:00:05.826Z,27.60
2018-05-24T14:02:33.313Z,27.60
2018-05-24T14:05:00.862Z,27.60
2018-05-24T14:07:28.351Z,27.40
2018-05-24T14:09:55.944Z,27.20
2018-05-24T14:12:24.222Z,26.90
2018-05-24T14:14:51.719Z,26.90
2018-05-24T14:17:19.206Z,26.90
2018-05-24T14:19:46.762Z,26.90
2018-05-24T14:22:14.251Z,26.90
2018-05-24T14:24:41.774Z,26.80
2018-05-24T14:27:09.306Z,26.70
2018-05-24T14:29:36.797Z,26.60
2018-05-24T14:32:04.290Z,26.50
2018-05-24T14:34:32.596Z,26.20
2018-05-24T14:37:00.082Z,26.10
2018-05-24T14:39:27.570Z,26.10
2018-05-24T14:41:55.131Z,26.20
2018-05-24T14:44:22.618Z,26.20
2018-05-24T14:46:50.104Z,26.20
2018-05-24T14:49:17.610Z,26.20
2018-05-24T14:51:45.096Z,26.00
2018-05-24T14:54:12.987Z,25.90
2018-05-24T14:56:40.528Z,25.90
2018-05-24T14:59:08.027Z,25.90
2018-05-24T15:01:35.510Z,25.90
2018-05-24T15:04:03.039Z,26.00
2018-05-24T15:06:30.532Z,26.00
2018-05-24T15:08:58.147Z,25.90
2018-05-24T15:11:25.723Z,25.90
2018-05-24T15:13:53.363Z,25.90
2018-05-24T15:16:20.852Z,26.00
2018-05-24T15:18:48.383Z,26.10
2018-05-24T15:21:15.879Z,26.20
2018-05-24T15:23:43.416Z,26.40
2018-05-24T15:26:10.986Z,26.40
2018-05-24T15:28:38.470Z,26.50
2018-05-24T15:31:05.959Z,26.70
2018-05-24T15:33:33.479Z,26.90
2018-05-24T15:36:00.982Z,27.10
2018-05-24T15:38:28.476Z,27.20
2018-05-24T15:40:56.066Z,27.30
2018-05-24T15:43:23.561Z,27.50
2018-05-24T15:45:51.055Z,27.80
2018-05-24T15:48:18.594Z,28.00
2018-05-24T15:50:46.090Z,28.30
2018-05-24T15:53:13.574Z,28.50
2018-05-24T15:55:41.135Z,28.80
2018-05-24T15:58:08.654Z,28.90
2018-05-24T16:00:36.139Z,29.20
2018-05-24T16:03:03.674Z,29.40
2018-05-24T16:05:31.204Z,29.40
2018-05-24T16:07:58.691Z,29.30
2018-05-24T16:10:26.218Z,29.40
2018-05-24T16:12:53.712Z,29.40
2018-05-24T16:15:21.200Z,29.40
2018-05-24T16:17:48.750Z,29.40
2018-05-24T16:20:16.238Z,29.50
2018-05-24T16:22:43.729Z,29.70
2018-05-24T16:25:11.265Z,30.00
2018-05-24T16:27:38.754Z,30.00
2018-05-24T16:30:06.254Z,30.10
2018-05-24T16:32:33.786Z,30.20
2018-05-24T16:35:01.271Z,30.30
2018-05-24T16:37:28.762Z,30.30
2018-05-24T16:39:56.341Z,30.40
2018-05-24T16:42:23.836Z,30.60
2018-05-24T16:44:51.348Z,30.70
2018-05-24T16:47:19.023Z,30.60
2018-05-24T16:49:46.510Z,30.60
2018-05-24T16:52:14.071Z,30.60
2018-05-24T16:54:41.724Z,30.40
2018-05-24T16:57:09.206Z,30.00
2018-05-24T16:59:36.692Z,29.50
2018-05-24T17:02:04.207Z,29.20
2018-05-24T17:04:31.702Z,29.00
2018-05-24T17:06:59.190Z,28.80
2018-05-24T17:09:26.748Z,28.60
2018-05-24T17:11:54.243Z,28.40
2018-05-24T17:14:21.735Z,28.20
2018-05-24T17:16:49.294Z,28.00
2018-05-24T17:19:17.546Z,27.70
2018-05-24T17:21:45.051Z,27.60
2018-05-24T17:24:12.574Z,27.50
2018-05-24T17:26:40.070Z,27.20
2018-05-24T17:29:07.575Z,26.60
2018-05-24T17:31:35.146Z,25.70
2018-05-24T17:34:02.642Z,24.70
2018-05-24T17:36:30.125Z,23.80
2018-05-24T17:38:57.651Z,23.00
2018-05-24T17:41:25.901Z,21.90
2018-05-24T17:43:53.387Z,21.90
2018-05-24T17:46:20.906Z,21.60
2018-05-24T17:48:48.394Z,21.30
2018-05-24T17:51:15.883Z,21.00
2018-05-24T17:53:43.430Z,20.80
2018-05-24T17:56:11.683Z,20.40
2018-05-24T17:58:39.183Z,20.40
2018-05-24T18:01:07.514Z,20.00
2018-05-24T18:03:36.888Z,20.00
2018-05-24T18:06:04.487Z,19.90
2018-05-24T18:08:32.790Z,19.60
2018-05-24T18:11:00.287Z,19.60
2018-05-24T18:13:27.780Z,19.50
2018-05-24T18:15:55.318Z,19.40
2018-05-24T18:18:22.816Z,19.30
2018-05-24T18:20:50.312Z,19.20
2018-05-24T18:23:18.598Z,19.00
2018-05-24T18:25:46.083Z,19.00
2018-05-24T18:28:13.565Z,18.90
2018-05-24T18:30:41.122Z,18.80
2018-05-24T18:33:08.607Z,18.70
2018-05-24T18:35:36.118Z,18.50
2018-05-24T18:38:03.642Z,18.40
2018-05-24T18:40:31.130Z,18.30
2018-05-24T18:42:58.638Z,18.20
2018-05-24T18:45:26.171Z,18.00
2018-05-24T18:47:53.660Z,17.90
2018-05-24T18:50:21.147Z,17.90
2018-05-24T18:52:48.668Z,17.80
2018-05-24T18:55:16.154Z,17.60
2018-05-24T18:57:43.639Z,17.50
2018-05-24T19:00:11.210Z,17.40
2018-05-24T19:02:38.694Z,17.30
2018-05-24T19:05:06.180Z,17.20
2018-05-24T19:07:33.706Z,17.20
2018-05-24T19:10:01.195Z,17.10
2018-05-24T19:12:28.681Z,16.90
2018-05-24T19:14:56.212Z,16.80
2018-05-24T19:17:23.743Z,16.70
2018-05-24T19:19:51.236Z,16.70
2018-05-24T19:22:18.874Z,16.50
2018-05-24T19:24:46.376Z,16.40
2018-05-24T19:27:13.862Z,16.30
2018-05-24T19:29:41.422Z,16.20
2018-05-24T19:32:09.681Z,16.00
2018-05-24T19:34:37.944Z,15.90
2018-05-24T19:37:06.310Z,15.80
2018-05-24T19:39:33.799Z,15.80
2018-05-24T19:42:01.280Z,15.70
2018-05-24T19:44:28.841Z,15.60
2018-05-24T19:46:57.194Z,15.60
2018-05-24T19:49:24.679Z,15.50
2018-05-24T19:51:52.966Z,15.40
2018-05-24T19:54:20.459Z,15.40
2018-05-24T19:56:47.951Z,15.40
2018-05-24T19:59:15.471Z,15.30
2018-05-24T20:01:42.970Z,15.30
2018-05-24T20:04:10.463Z,15.20
2018-05-24T20:06:38.018Z,15.20
2018-05-24T20:09:06.410Z,15.10
2018-05-24T20:11:33.894Z,15.10
2018-05-24T20:14:01.422Z,15.00
2018-05-24T20:16:28.915Z,14.90
2018-05-24T20:18:56.404Z,14.90
2018-05-24T20:25:58.486Z,14.80
2018-05-24T20:28:26.041Z,14.70
2018-05-24T20:30:53.526Z,14.60
2018-05-24T20:33:21.010Z,14.50
2018-05-24T20:35:48.571Z,14.40
2018-05-24T20:38:16.822Z,14.30
2018-05-24T20:40:44.307Z,14.30
2018-05-24T20:43:11.830Z,14.20
2018-05-24T20:45:39.322Z,14.10
2018-05-24T20:48:06.814Z,14.10
2018-05-24T20:50:35.104Z,14.00
2018-05-24T20:53:02.595Z,14.00
2018-05-24T20:55:30.082Z,14.00
2018-05-24T20:57:58.382Z,13.90
2018-05-24T21:00:25.870Z,13.90
2018-05-24T21:02:53.430Z,13.90
2018-05-24T21:05:20.984Z,13.80
2018-05-24T21:07:48.492Z,13.80
2018-05-24T21:10:16.046Z,13.80
2018-05-24T21:12:43.554Z,13.80
2018-05-24T21:15:11.046Z,13.80
2018-05-24T21:17:38.539Z,13.80
2018-05-24T21:20:06.076Z,13.70
2018-05-24T21:22:33.581Z,13.70
2018-05-24T21:25:01.075Z,13.60
2018-05-24T21:27:28.586Z,13.60
2018-05-24T21:29:56.079Z,13.60
2018-05-24T21:32:23.567Z,13.50
2018-05-24T21:34:51.127Z,13.50
2018-05-24T21:37:18.623Z,13.60
2018-05-24T21:39:46.142Z,13.50
2018-05-24T21:42:13.668Z,13.50
2018-05-24T21:44:41.918Z,13.60
2018-05-24T21:47:09.407Z,13.60
2018-05-24T21:49:36.938Z,13.60
2018-05-24T21:52:04.427Z,13.70
2018-05-24T21:54:32.678Z,13.80
2018-05-24T21:57:00.206Z,13.80
2018-05-24T21:59:27.686Z,13.90
2018-05-24T22:01:55.214Z,13.90
2018-05-24T22:04:22.741Z,13.90
2018-05-24T22:06:50.994Z,13.90
2018-05-24T22:09:18.478Z,13.90
2018-05-24T22:11:46.809Z,13.90
2018-05-24T22:14:14.298Z,13.90
2018-05-24T22:16:41.791Z,13.90
2018-05-24T22:19:10.090Z,13.80
2018-05-24T22:21:37.580Z,13.80
2018-05-24T22:24:05.066Z,13.80
2018-05-24T22:26:32.625Z,13.80
2018-05-24T22:29:00.107Z,13.80
2018-05-24T22:31:27.588Z,13.70
2018-05-24T22:33:55.112Z,13.70
2018-05-24T22:36:22.602Z,13.70
2018-05-24T22:38:50.118Z,13.70
2018-05-24T22:41:17.646Z,13.70
2018-05-24T22:43:45.146Z,13.70
2018-05-24T22:46:12.630Z,13.70
2018-05-24T22:48:40.146Z,13.70
2018-05-24T22:51:07.634Z,13.60
2018-05-24T22:53:35.119Z,13.60
2018-05-24T22:56:02.627Z,13.60
2018-05-24T22:58:30.111Z,13.60
2018-05-24T23:00:57.591Z,13.50
2018-05-24T23:03:25.882Z,13.50
2018-05-24T23:05:53.403Z,13.50
2018-05-24T23:08:20.870Z,13.50
2018-05-24T23:10:48.411Z,13.50
2018-05-24T23:13:15.896Z,13.50
2018-05-24T23:15:43.388Z,13.50
2018-05-24T23:18:10.953Z,13.40
2018-05-24T23:20:38.443Z,13.40
2018-05-24T23:23:05.987Z,13.40
2018-05-24T23:25:33.510Z,13.30
2018-05-24T23:28:00.997Z,13.20
2018-05-24T23:30:28.488Z,13.20
2018-05-24T23:32:56.024Z,13.20
2018-05-24T23:35:23.514Z,13.10
2018-05-24T23:37:51.015Z,13.00
2018-05-24T23:40:19.339Z,12.90
2018-05-24T23:42:46.818Z,12.90
2018-05-24T23:45:14.502Z,12.80
2018-05-24T23:47:42.034Z,12.70
2018-05-24T23:50:09.530Z,12.70
2018-05-24T23:52:37.782Z,12.50
2018-05-24T23:55:05.305Z,12.60
2018-05-24T23:57:32.786Z,12.50
